Terminal Aerodrome Forecast
Issued by NWS Mt. Holly, NJ

Home | Current Version | Previous Version | Text Only | Print | Product List | Glossary On
Versions: 1 2 3 4 5 6 7 8 9 10 11 12 13 14 15 16 17
960
FTUS41 KPHI 251133
TAFILG
TAF
KILG 251133Z 2512/2612 16006KT 1/2SM FG OVC002
      TEMPO 2512/2514 3SM BR OVC010
     FM251400 17010KT 5SM BR BKN025
     FM251600 17012G20KT P6SM BKN050
      TEMPO 2521/2523 27018G35KT 2SM TSRA OVC020CB
     FM252300 29012G20KT P6SM VCSH OVC050
     FM260100 29015G25KT P6SM SCT040=

USA.gov is the U.S. government's official web portal to all federal, state and local government web resources and services.